Wesleyville, Canada
Current Conditions -  °F | °C
As of 9:33 PM on Thursday 27 Nov 2014 (Local Time) from CYQX Reporting Station
Drizzle Drizzle  
Wind Chill: 24°   Ceiling: 200
Heat Index: 32°   Visibility: 1.2mi
Dew Point: 32°   Wind: 9mph
Humidity: 100%   Direction: 290°WNW
Pressure: 29.23"   Gusts: NA
Location:  49.15°N, 53.58°W
Report Text: CYQX 280033Z 29008KT 1 1/4SM R03/3500V5500FT/U R13/5000VP6000FT/U -DZ BR OVC002 00/00 A2923 RMK FG5SF3 SLP905
Loading
Personal Weather Stations






























Interactive Weather Map New forecast layout! Learn more

10-Day Weather Forecast

Advertisements
Track Severe Weather on mobile